首页
METAR-TAF:

METAR-TAF

机场 :

日内瓦国际机场

日内瓦, 瑞士

纬度: 46-15N, 经度: 006-08E, 海拔: 420米

当前天气观测

该预报发布于11分钟前的06:20 UTC
风速1节,风向多变
温度 15°C
湿度 94%
气压 1027 hPa
能见度10公里或以上
1500米以下无云,无积雨云

METAR: LSGG 150620Z VRB01KT CAVOK 15/14 Q1027 NOSIG

时间: 08:31 (06:31 UTC)

预报

该预报发布于1小时和6分钟前的05:25 UTC
预报有效从15日的 06点(UTC)到 16日的 12点(UTC)
风速3节,风向多变
能见度10公里或以上
1500米以下无云,无积雨云
几率 30%
从 15日的 06点(UTC)到 15日的 07点(UTC)
能见度10公里或以上
多云层高于1400英尺

TAF: LSGG 150525Z 1506/1612 VRB03KT CAVOK TX27/1515Z TN15/1506Z TN14/1605Z PROB30 1506/1507 9999 BKN014

超过4000个机场的气象观测和天气预报(METAR&TAF报告)。

可查询的气象台以黄色和红色小点在地图上表示。

将鼠标移到小点上方,可查看气象台名称。

然后点击查看天气观测和预报。

如需切换地图:点击带黑十字的绿色按钮放大地图;点击带横线的绿色按钮缩小地图;或者点击绿色箭头查看邻近地区的地图。


METAR-TAF: